sensor_id;sensor_type;location;lat;lon;timestamp;P1;durP1;ratioP1;P2;durP2;ratioP2
75220;SDS011;63802;53.232;6.570;2023-03-31T00:01:09;20.50;;;2.90;;
75220;SDS011;63802;53.232;6.570;2023-03-31T00:03:35;28.50;;;3.80;;
75220;SDS011;63802;53.232;6.570;2023-03-31T00:06:03;25.58;;;4.00;;
75220;SDS011;63802;53.232;6.570;2023-03-31T00:08:30;25.38;;;3.30;;
75220;SDS011;63802;53.232;6.570;2023-03-31T00:10:59;28.42;;;3.72;;
75220;SDS011;63802;53.232;6.570;2023-03-31T00:13:27;24.55;;;3.83;;
75220;SDS011;63802;53.232;6.570;2023-03-31T00:15:57;18.23;;;3.08;;
75220;SDS011;63802;53.232;6.570;2023-03-31T00:18:25;18.02;;;3.60;;
75220;SDS011;63802;53.232;6.570;2023-03-31T00:20:54;14.88;;;2.90;;
75220;SDS011;63802;53.232;6.570;2023-03-31T00:23:23;20.63;;;3.80;;
75220;SDS011;63802;53.232;6.570;2023-03-31T00:25:56;21.67;;;3.85;;
75220;SDS011;63802;53.232;6.570;2023-03-31T00:28:24;19.38;;;3.13;;
75220;SDS011;63802;53.232;6.570;2023-03-31T00:30:50;22.02;;;3.03;;
75220;SDS011;63802;53.232;6.570;2023-03-31T00:33:15;25.33;;;3.50;;
75220;SDS011;63802;53.232;6.570;2023-03-31T00:35:41;23.70;;;3.13;;
75220;SDS011;63802;53.232;6.570;2023-03-31T00:38:07;20.20;;;3.55;;
75220;SDS011;63802;53.232;6.570;2023-03-31T00:40:36;32.65;;;3.90;;
75220;SDS011;63802;53.232;6.570;2023-03-31T00:43:15;22.45;;;3.22;;
75220;SDS011;63802;53.232;6.570;2023-03-31T00:45:50;25.83;;;3.58;;
75220;SDS011;63802;53.232;6.570;2023-03-31T00:48:16;22.23;;;3.33;;
75220;SDS011;63802;53.232;6.570;2023-03-31T00:50:53;15.32;;;3.20;;
75220;SDS011;63802;53.232;6.570;2023-03-31T00:53:24;20.55;;;2.88;;
75220;SDS011;63802;53.232;6.570;2023-03-31T00:55:53;17.35;;;2.67;;
75220;SDS011;63802;53.232;6.570;2023-03-31T01:00:52;21.27;;;3.47;;
75220;SDS011;63802;53.232;6.570;2023-03-31T01:03:19;34.13;;;3.58;;
75220;SDS011;63802;53.232;6.570;2023-03-31T01:05:56;24.67;;;2.88;;
75220;SDS011;63802;53.232;6.570;2023-03-31T01:08:27;22.40;;;2.88;;
75220;SDS011;63802;53.232;6.570;2023-03-31T01:10:55;17.63;;;3.15;;
75220;SDS011;63802;53.232;6.570;2023-03-31T01:13:23;25.52;;;3.22;;
75220;SDS011;63802;53.232;6.570;2023-03-31T01:15:52;18.77;;;2.95;;
75220;SDS011;63802;53.232;6.570;2023-03-31T01:18:18;22.05;;;3.50;;
75220;SDS011;63802;53.232;6.570;2023-03-31T01:40:52;17.75;;;2.92;;
75220;SDS011;63802;53.232;6.570;2023-03-31T01:43:47;24.58;;;3.47;;
75220;SDS011;63802;53.232;6.570;2023-03-31T01:46:32;22.90;;;3.28;;
75220;SDS011;63802;53.232;6.570;2023-03-31T01:51:34;20.92;;;3.65;;
75220;SDS011;63802;53.232;6.570;2023-03-31T02:02:26;28.27;;;2.97;;
75220;SDS011;63802;53.232;6.570;2023-03-31T02:07:35;19.05;;;2.80;;
75220;SDS011;63802;53.232;6.570;2023-03-31T02:10:06;16.85;;;3.40;;
75220;SDS011;63802;53.232;6.570;2023-03-31T02:12:35;20.05;;;3.03;;
75220;SDS011;63802;53.232;6.570;2023-03-31T02:15:05;17.73;;;2.83;;
75220;SDS011;63802;53.232;6.570;2023-03-31T02:17:34;22.58;;;3.72;;
75220;SDS011;63802;53.232;6.570;2023-03-31T02:22:32;23.20;;;2.85;;
75220;SDS011;63802;53.232;6.570;2023-03-31T02:25:01;19.45;;;3.65;;
75220;SDS011;63802;53.232;6.570;2023-03-31T02:27:36;23.52;;;4.32;;
75220;SDS011;63802;53.232;6.570;2023-03-31T02:30:06;13.50;;;2.47;;
75220;SDS011;63802;53.232;6.570;2023-03-31T02:32:34;16.73;;;3.05;;
75220;SDS011;63802;53.232;6.570;2023-03-31T02:35:03;24.02;;;3.88;;
75220;SDS011;63802;53.232;6.570;2023-03-31T02:37:31;13.98;;;2.85;;
75220;SDS011;63802;53.232;6.570;2023-03-31T02:39:58;16.48;;;3.40;;
75220;SDS011;63802;53.232;6.570;2023-03-31T02:42:29;19.77;;;4.15;;
75220;SDS011;63802;53.232;6.570;2023-03-31T02:45:00;15.73;;;2.60;;
75220;SDS011;63802;53.232;6.570;2023-03-31T02:47:30;18.85;;;3.50;;
75220;SDS011;63802;53.232;6.570;2023-03-31T02:49:57;17.42;;;2.85;;
75220;SDS011;63802;53.232;6.570;2023-03-31T02:52:38;23.00;;;3.15;;
75220;SDS011;63802;53.232;6.570;2023-03-31T02:55:14;18.65;;;2.67;;
75220;SDS011;63802;53.232;6.570;2023-03-31T03:00:18;14.77;;;2.10;;
75220;SDS011;63802;53.232;6.570;2023-03-31T03:11:38;16.88;;;2.50;;
75220;SDS011;63802;53.232;6.570;2023-03-31T03:14:28;20.73;;;3.35;;
75220;SDS011;63802;53.232;6.570;2023-03-31T03:17:07;16.20;;;3.08;;
75220;SDS011;63802;53.232;6.570;2023-03-31T03:19:37;22.02;;;4.63;;
75220;SDS011;63802;53.232;6.570;2023-03-31T03:22:05;16.42;;;3.20;;
75220;SDS011;63802;53.232;6.570;2023-03-31T03:24:31;20.15;;;3.13;;
75220;SDS011;63802;53.232;6.570;2023-03-31T03:26:58;12.02;;;2.70;;
75220;SDS011;63802;53.232;6.570;2023-03-31T03:29:24;20.50;;;2.55;;
75220;SDS011;63802;53.232;6.570;2023-03-31T03:31:51;16.77;;;2.85;;
75220;SDS011;63802;53.232;6.570;2023-03-31T03:34:17;20.17;;;2.70;;
75220;SDS011;63802;53.232;6.570;2023-03-31T03:36:44;15.55;;;2.85;;
75220;SDS011;63802;53.232;6.570;2023-03-31T03:39:12;17.40;;;3.50;;
75220;SDS011;63802;53.232;6.570;2023-03-31T03:41:38;14.90;;;2.85;;
75220;SDS011;63802;53.232;6.570;2023-03-31T03:44:03;9.30;;;2.20;;
75220;SDS011;63802;53.232;6.570;2023-03-31T03:46:29;12.65;;;2.60;;
75220;SDS011;63802;53.232;6.570;2023-03-31T03:48:55;12.90;;;2.85;;
75220;SDS011;63802;53.232;6.570;2023-03-31T03:51:20;14.50;;;2.75;;
75220;SDS011;63802;53.232;6.570;2023-03-31T03:53:46;16.02;;;2.83;;
75220;SDS011;63802;53.232;6.570;2023-03-31T03:56:11;16.02;;;2.50;;
75220;SDS011;63802;53.232;6.570;2023-03-31T03:58:37;12.68;;;2.88;;
75220;SDS011;63802;53.232;6.570;2023-03-31T04:01:02;15.70;;;3.47;;
75220;SDS011;63802;53.232;6.570;2023-03-31T04:03:28;15.00;;;3.22;;
75220;SDS011;63802;53.232;6.570;2023-03-31T04:05:56;12.00;;;2.70;;
75220;SDS011;63802;53.232;6.570;2023-03-31T04:08:23;15.32;;;2.70;;
75220;SDS011;63802;53.232;6.570;2023-03-31T04:10:49;16.02;;;2.92;;
75220;SDS011;63802;53.232;6.570;2023-03-31T04:13:15;12.10;;;2.97;;
75220;SDS011;63802;53.232;6.570;2023-03-31T04:15:41;8.50;;;2.67;;
75220;SDS011;63802;53.232;6.570;2023-03-31T04:18:07;15.70;;;2.80;;
75220;SDS011;63802;53.232;6.570;2023-03-31T04:20:46;9.18;;;3.13;;
75220;SDS011;63802;53.232;6.570;2023-03-31T04:23:18;15.23;;;3.10;;
75220;SDS011;63802;53.232;6.570;2023-03-31T04:25:47;13.30;;;3.65;;
75220;SDS011;63802;53.232;6.570;2023-03-31T04:28:13;11.50;;;3.05;;
75220;SDS011;63802;53.232;6.570;2023-03-31T04:30:39;16.15;;;3.60;;
75220;SDS011;63802;53.232;6.570;2023-03-31T04:33:05;11.20;;;3.40;;
75220;SDS011;63802;53.232;6.570;2023-03-31T04:35:30;11.32;;;3.58;;
75220;SDS011;63802;53.232;6.570;2023-03-31T04:38:06;13.45;;;4.07;;
75220;SDS011;63802;53.232;6.570;2023-03-31T04:40:32;13.88;;;3.83;;
75220;SDS011;63802;53.232;6.570;2023-03-31T04:42:59;13.25;;;3.65;;
75220;SDS011;63802;53.232;6.570;2023-03-31T04:45:25;19.30;;;4.22;;
75220;SDS011;63802;53.232;6.570;2023-03-31T04:47:51;15.25;;;3.95;;
75220;SDS011;63802;53.232;6.570;2023-03-31T04:50:16;14.30;;;4.32;;
75220;SDS011;63802;53.232;6.570;2023-03-31T04:52:42;16.17;;;4.45;;
75220;SDS011;63802;53.232;6.570;2023-03-31T04:55:08;16.30;;;5.32;;
75220;SDS011;63802;53.232;6.570;2023-03-31T04:57:34;15.20;;;4.47;;
75220;SDS011;63802;53.232;6.570;2023-03-31T05:00:01;19.35;;;4.78;;
75220;SDS011;63802;53.232;6.570;2023-03-31T05:02:31;13.73;;;4.70;;
75220;SDS011;63802;53.232;6.570;2023-03-31T05:05:03;15.13;;;4.60;;
75220;SDS011;63802;53.232;6.570;2023-03-31T05:07:35;13.63;;;5.07;;
75220;SDS011;63802;53.232;6.570;2023-03-31T05:10:02;14.68;;;5.18;;
75220;SDS011;63802;53.232;6.570;2023-03-31T05:12:28;16.58;;;5.78;;
75220;SDS011;63802;53.232;6.570;2023-03-31T05:14:54;13.95;;;4.88;;
75220;SDS011;63802;53.232;6.570;2023-03-31T05:17:19;18.90;;;5.60;;
75220;SDS011;63802;53.232;6.570;2023-03-31T05:19:46;18.65;;;5.57;;
75220;SDS011;63802;53.232;6.570;2023-03-31T05:22:11;18.92;;;5.63;;
75220;SDS011;63802;53.232;6.570;2023-03-31T05:24:37;17.08;;;5.38;;
75220;SDS011;63802;53.232;6.570;2023-03-31T05:27:02;16.92;;;5.72;;
75220;SDS011;63802;53.232;6.570;2023-03-31T05:29:29;16.02;;;5.80;;
75220;SDS011;63802;53.232;6.570;2023-03-31T05:31:57;17.90;;;6.03;;
75220;SDS011;63802;53.232;6.570;2023-03-31T05:34:31;16.83;;;5.75;;
75220;SDS011;63802;53.232;6.570;2023-03-31T05:36:57;16.23;;;5.30;;
75220;SDS011;63802;53.232;6.570;2023-03-31T05:39:22;15.35;;;5.13;;
75220;SDS011;63802;53.232;6.570;2023-03-31T05:41:56;17.63;;;5.18;;
75220;SDS011;63802;53.232;6.570;2023-03-31T05:44:22;15.82;;;5.15;;
75220;SDS011;63802;53.232;6.570;2023-03-31T05:46:48;17.55;;;5.15;;
75220;SDS011;63802;53.232;6.570;2023-03-31T05:49:13;17.13;;;5.10;;
75220;SDS011;63802;53.232;6.570;2023-03-31T05:51:48;15.23;;;4.18;;
75220;SDS011;63802;53.232;6.570;2023-03-31T05:54:18;14.93;;;4.85;;
75220;SDS011;63802;53.232;6.570;2023-03-31T05:56:44;14.85;;;4.63;;
75220;SDS011;63802;53.232;6.570;2023-03-31T05:59:10;12.38;;;4.78;;
75220;SDS011;63802;53.232;6.570;2023-03-31T06:01:36;12.13;;;4.82;;
75220;SDS011;63802;53.232;6.570;2023-03-31T06:04:01;14.98;;;4.78;;
75220;SDS011;63802;53.232;6.570;2023-03-31T06:06:26;13.20;;;4.40;;
75220;SDS011;63802;53.232;6.570;2023-03-31T06:08:52;10.57;;;4.10;;
75220;SDS011;63802;53.232;6.570;2023-03-31T06:11:19;13.52;;;3.55;;
75220;SDS011;63802;53.232;6.570;2023-03-31T06:13:45;11.00;;;4.07;;
75220;SDS011;63802;53.232;6.570;2023-03-31T06:16:15;20.02;;;4.13;;
75220;SDS011;63802;53.232;6.570;2023-03-31T06:18:41;13.50;;;3.80;;
75220;SDS011;63802;53.232;6.570;2023-03-31T06:21:07;15.73;;;4.25;;
75220;SDS011;63802;53.232;6.570;2023-03-31T06:26:04;11.50;;;4.07;;
75220;SDS011;63802;53.232;6.570;2023-03-31T06:28:32;9.07;;;3.45;;
75220;SDS011;63802;53.232;6.570;2023-03-31T06:31:06;13.98;;;3.67;;
75220;SDS011;63802;53.232;6.570;2023-03-31T06:33:36;13.38;;;4.05;;
75220;SDS011;63802;53.232;6.570;2023-03-31T06:36:01;10.32;;;3.83;;
75220;SDS011;63802;53.232;6.570;2023-03-31T06:38:29;13.00;;;4.03;;
75220;SDS011;63802;53.232;6.570;2023-03-31T06:40:55;13.77;;;3.72;;
75220;SDS011;63802;53.232;6.570;2023-03-31T06:43:20;12.30;;;4.20;;
75220;SDS011;63802;53.232;6.570;2023-03-31T06:45:46;12.90;;;3.65;;
75220;SDS011;63802;53.232;6.570;2023-03-31T06:48:11;7.80;;;3.53;;
75220;SDS011;63802;53.232;6.570;2023-03-31T06:50:37;13.32;;;3.80;;
75220;SDS011;63802;53.232;6.570;2023-03-31T06:53:05;12.75;;;3.78;;
75220;SDS011;63802;53.232;6.570;2023-03-31T06:55:31;10.73;;;3.95;;
75220;SDS011;63802;53.232;6.570;2023-03-31T06:57:58;8.63;;;3.40;;
75220;SDS011;63802;53.232;6.570;2023-03-31T07:00:23;11.70;;;3.65;;
75220;SDS011;63802;53.232;6.570;2023-03-31T07:02:50;12.90;;;3.63;;
75220;SDS011;63802;53.232;6.570;2023-03-31T07:05:15;6.57;;;3.35;;
75220;SDS011;63802;53.232;6.570;2023-03-31T07:07:42;10.20;;;3.85;;
75220;SDS011;63802;53.232;6.570;2023-03-31T07:10:13;11.50;;;3.38;;
75220;SDS011;63802;53.232;6.570;2023-03-31T07:12:39;10.50;;;3.95;;
75220;SDS011;63802;53.232;6.570;2023-03-31T07:15:05;7.85;;;2.83;;
75220;SDS011;63802;53.232;6.570;2023-03-31T07:17:34;9.75;;;3.28;;
75220;SDS011;63802;53.232;6.570;2023-03-31T07:20:01;9.90;;;3.67;;
75220;SDS011;63802;53.232;6.570;2023-03-31T07:22:31;9.90;;;3.70;;
75220;SDS011;63802;53.232;6.570;2023-03-31T07:24:57;8.45;;;3.92;;
75220;SDS011;63802;53.232;6.570;2023-03-31T07:27:22;11.30;;;3.53;;
75220;SDS011;63802;53.232;6.570;2023-03-31T07:29:48;8.90;;;3.65;;
75220;SDS011;63802;53.232;6.570;2023-03-31T07:32:22;9.77;;;3.92;;
75220;SDS011;63802;53.232;6.570;2023-03-31T07:34:47;11.18;;;4.13;;
75220;SDS011;63802;53.232;6.570;2023-03-31T07:37:13;12.52;;;4.13;;
75220;SDS011;63802;53.232;6.570;2023-03-31T07:39:38;13.45;;;4.00;;
75220;SDS011;63802;53.232;6.570;2023-03-31T07:42:04;16.15;;;4.38;;
75220;SDS011;63802;53.232;6.570;2023-03-31T07:44:34;15.45;;;3.92;;
75220;SDS011;63802;53.232;6.570;2023-03-31T07:47:00;10.57;;;3.90;;
75220;SDS011;63802;53.232;6.570;2023-03-31T07:49:32;12.68;;;3.65;;
75220;SDS011;63802;53.232;6.570;2023-03-31T07:51:59;11.23;;;3.42;;
75220;SDS011;63802;53.232;6.570;2023-03-31T07:54:25;9.27;;;3.83;;
75220;SDS011;63802;53.232;6.570;2023-03-31T07:56:51;8.63;;;4.03;;
75220;SDS011;63802;53.232;6.570;2023-03-31T07:59:16;10.52;;;3.67;;
75220;SDS011;63802;53.232;6.570;2023-03-31T08:01:42;9.77;;;3.08;;
75220;SDS011;63802;53.232;6.570;2023-03-31T08:04:09;9.00;;;3.35;;
75220;SDS011;63802;53.232;6.570;2023-03-31T08:06:36;8.63;;;3.50;;
75220;SDS011;63802;53.232;6.570;2023-03-31T08:09:02;12.10;;;3.30;;
75220;SDS011;63802;53.232;6.570;2023-03-31T08:11:29;7.18;;;3.45;;
75220;SDS011;63802;53.232;6.570;2023-03-31T08:13:55;9.57;;;3.40;;
75220;SDS011;63802;53.232;6.570;2023-03-31T08:16:21;10.93;;;3.35;;
75220;SDS011;63802;53.232;6.570;2023-03-31T08:18:55;10.77;;;3.92;;
75220;SDS011;63802;53.232;6.570;2023-03-31T08:21:25;7.72;;;3.38;;
75220;SDS011;63802;53.232;6.570;2023-03-31T08:23:53;11.40;;;3.70;;
75220;SDS011;63802;53.232;6.570;2023-03-31T08:26:22;10.63;;;3.85;;
75220;SDS011;63802;53.232;6.570;2023-03-31T08:28:51;9.47;;;3.20;;
75220;SDS011;63802;53.232;6.570;2023-03-31T08:31:18;10.00;;;3.38;;
75220;SDS011;63802;53.232;6.570;2023-03-31T08:33:45;11.23;;;3.20;;
75220;SDS011;63802;53.232;6.570;2023-03-31T08:36:11;8.25;;;3.55;;
75220;SDS011;63802;53.232;6.570;2023-03-31T08:38:38;9.23;;;3.22;;
75220;SDS011;63802;53.232;6.570;2023-03-31T08:47:02;6.43;;;2.45;;
75220;SDS011;63802;53.232;6.570;2023-03-31T08:49:38;7.97;;;2.90;;
75220;SDS011;63802;53.232;6.570;2023-03-31T08:52:14;7.38;;;2.75;;
75220;SDS011;63802;53.232;6.570;2023-03-31T08:54:45;7.15;;;2.92;;
75220;SDS011;63802;53.232;6.570;2023-03-31T08:57:58;6.80;;;3.08;;
75220;SDS011;63802;53.232;6.570;2023-03-31T09:01:01;8.05;;;3.10;;
75220;SDS011;63802;53.232;6.570;2023-03-31T09:03:33;7.45;;;3.17;;
75220;SDS011;63802;53.232;6.570;2023-03-31T09:06:21;5.65;;;2.95;;
75220;SDS011;63802;53.232;6.570;2023-03-31T09:08:54;8.27;;;3.20;;
75220;SDS011;63802;53.232;6.570;2023-03-31T09:12:12;9.07;;;3.22;;
75220;SDS011;63802;53.232;6.570;2023-03-31T09:14:20;7.57;;;2.80;;
75220;SDS011;63802;53.232;6.570;2023-03-31T09:19:44;7.97;;;3.33;;
75220;SDS011;63802;53.232;6.570;2023-03-31T09:23:35;12.15;;;3.15;;
75220;SDS011;63802;53.232;6.570;2023-03-31T09:25:41;8.73;;;3.75;;
75220;SDS011;63802;53.232;6.570;2023-03-31T09:31:18;10.40;;;3.70;;
75220;SDS011;63802;53.232;6.570;2023-03-31T09:33:53;7.25;;;3.08;;
75220;SDS011;63802;53.232;6.570;2023-03-31T09:36:25;11.63;;;3.47;;
75220;SDS011;63802;53.232;6.570;2023-03-31T09:38:51;14.43;;;3.75;;
75220;SDS011;63802;53.232;6.570;2023-03-31T09:41:17;12.57;;;3.50;;
75220;SDS011;63802;53.232;6.570;2023-03-31T09:43:47;14.73;;;4.15;;
75220;SDS011;63802;53.232;6.570;2023-03-31T09:46:34;12.70;;;3.60;;
75220;SDS011;63802;53.232;6.570;2023-03-31T09:49:17;9.32;;;3.70;;
75220;SDS011;63802;53.232;6.570;2023-03-31T09:51:55;12.40;;;3.40;;
75220;SDS011;63802;53.232;6.570;2023-03-31T09:54:40;10.60;;;3.85;;
75220;SDS011;63802;53.232;6.570;2023-03-31T09:57:22;13.73;;;3.88;;
75220;SDS011;63802;53.232;6.570;2023-03-31T09:59:51;8.00;;;2.83;;
75220;SDS011;63802;53.232;6.570;2023-03-31T10:04:59;9.85;;;4.05;;
75220;SDS011;63802;53.232;6.570;2023-03-31T10:07:47;15.13;;;3.95;;
75220;SDS011;63802;53.232;6.570;2023-03-31T10:10:34;9.75;;;3.50;;
75220;SDS011;63802;53.232;6.570;2023-03-31T10:13:20;8.70;;;3.72;;
75220;SDS011;63802;53.232;6.570;2023-03-31T10:16:00;6.70;;;3.42;;
75220;SDS011;63802;53.232;6.570;2023-03-31T10:18:41;8.40;;;3.28;;
75220;SDS011;63802;53.232;6.570;2023-03-31T10:21:20;9.15;;;3.60;;
75220;SDS011;63802;53.232;6.570;2023-03-31T10:23:51;10.77;;;3.58;;
75220;SDS011;63802;53.232;6.570;2023-03-31T10:26:52;9.30;;;2.85;;
75220;SDS011;63802;53.232;6.570;2023-03-31T10:29:40;6.38;;;2.78;;
75220;SDS011;63802;53.232;6.570;2023-03-31T10:32:28;8.18;;;3.20;;
75220;SDS011;63802;53.232;6.570;2023-03-31T10:38:00;5.20;;;2.88;;
75220;SDS011;63802;53.232;6.570;2023-03-31T10:40:47;5.63;;;2.70;;
75220;SDS011;63802;53.232;6.570;2023-03-31T10:43:16;6.22;;;2.80;;
75220;SDS011;63802;53.232;6.570;2023-03-31T10:45:52;4.68;;;2.58;;
75220;SDS011;63802;53.232;6.570;2023-03-31T10:50:52;5.05;;;2.55;;
75220;SDS011;63802;53.232;6.570;2023-03-31T10:53:40;7.97;;;4.15;;
75220;SDS011;63802;53.232;6.570;2023-03-31T11:19:10;4.80;;;2.28;;
75220;SDS011;63802;53.232;6.570;2023-03-31T11:31:14;7.97;;;2.47;;
75220;SDS011;63802;53.232;6.570;2023-03-31T11:43:06;7.43;;;2.40;;
75220;SDS011;63802;53.232;6.570;2023-03-31T11:46:10;4.78;;;2.40;;
75220;SDS011;63802;53.232;6.570;2023-03-31T12:05:47;6.85;;;2.22;;
75220;SDS011;63802;53.232;6.570;2023-03-31T12:08:38;8.15;;;2.10;;
75220;SDS011;63802;53.232;6.570;2023-03-31T12:11:28;6.28;;;2.40;;
75220;SDS011;63802;53.232;6.570;2023-03-31T12:16:50;5.35;;;2.45;;
75220;SDS011;63802;53.232;6.570;2023-03-31T12:22:54;8.02;;;2.25;;
75220;SDS011;63802;53.232;6.570;2023-03-31T12:25:19;9.75;;;2.20;;
75220;SDS011;63802;53.232;6.570;2023-03-31T12:28:07;6.57;;;2.20;;
75220;SDS011;63802;53.232;6.570;2023-03-31T12:30:43;5.03;;;1.88;;
75220;SDS011;63802;53.232;6.570;2023-03-31T12:44:25;6.38;;;2.53;;
75220;SDS011;63802;53.232;6.570;2023-03-31T12:55:53;9.23;;;2.70;;
75220;SDS011;63802;53.232;6.570;2023-03-31T13:04:24;7.88;;;2.15;;
75220;SDS011;63802;53.232;6.570;2023-03-31T13:06:56;8.10;;;2.47;;
75220;SDS011;63802;53.232;6.570;2023-03-31T13:11:55;9.82;;;2.90;;
75220;SDS011;63802;53.232;6.570;2023-03-31T13:14:35;10.45;;;3.05;;
75220;SDS011;63802;53.232;6.570;2023-03-31T13:17:19;9.73;;;2.60;;
75220;SDS011;63802;53.232;6.570;2023-03-31T13:19:50;8.48;;;2.88;;
75220;SDS011;63802;53.232;6.570;2023-03-31T13:22:29;5.85;;;2.60;;
75220;SDS011;63802;53.232;6.570;2023-03-31T13:27:57;6.40;;;2.75;;
75220;SDS011;63802;53.232;6.570;2023-03-31T13:36:00;6.93;;;2.45;;
75220;SDS011;63802;53.232;6.570;2023-03-31T13:48:06;7.85;;;2.30;;
75220;SDS011;63802;53.232;6.570;2023-03-31T14:05:24;9.52;;;2.80;;
75220;SDS011;63802;53.232;6.570;2023-03-31T14:10:36;6.13;;;2.20;;
75220;SDS011;63802;53.232;6.570;2023-03-31T14:13:24;3.63;;;2.13;;
75220;SDS011;63802;53.232;6.570;2023-03-31T14:15:52;13.45;;;2.60;;
75220;SDS011;63802;53.232;6.570;2023-03-31T14:18:27;9.30;;;2.67;;
75220;SDS011;63802;53.232;6.570;2023-03-31T14:26:49;7.90;;;2.30;;
75220;SDS011;63802;53.232;6.570;2023-03-31T14:29:34;4.47;;;1.35;;
75220;SDS011;63802;53.232;6.570;2023-03-31T14:32:12;3.97;;;1.63;;
75220;SDS011;63802;53.232;6.570;2023-03-31T14:37:50;3.80;;;1.35;;
75220;SDS011;63802;53.232;6.570;2023-03-31T14:40:17;3.33;;;0.90;;
75220;SDS011;63802;53.232;6.570;2023-03-31T14:42:44;7.07;;;1.95;;
75220;SDS011;63802;53.232;6.570;2023-03-31T14:53:35;5.20;;;1.10;;
75220;SDS011;63802;53.232;6.570;2023-03-31T14:56:08;4.57;;;1.48;;
75220;SDS011;63802;53.232;6.570;2023-03-31T14:58:39;3.15;;;1.30;;
75220;SDS011;63802;53.232;6.570;2023-03-31T15:01:08;5.72;;;1.42;;
75220;SDS011;63802;53.232;6.570;2023-03-31T15:03:43;5.00;;;1.65;;
75220;SDS011;63802;53.232;6.570;2023-03-31T15:06:10;4.75;;;1.60;;
75220;SDS011;63802;53.232;6.570;2023-03-31T15:08:41;6.07;;;1.52;;
75220;SDS011;63802;53.232;6.570;2023-03-31T15:13:34;7.03;;;1.50;;
75220;SDS011;63802;53.232;6.570;2023-03-31T15:16:18;7.90;;;1.40;;
75220;SDS011;63802;53.232;6.570;2023-03-31T15:19:16;4.20;;;1.60;;
75220;SDS011;63802;53.232;6.570;2023-03-31T15:21:55;1.55;;;1.10;;
75220;SDS011;63802;53.232;6.570;2023-03-31T15:24:30;5.10;;;1.25;;
75220;SDS011;63802;53.232;6.570;2023-03-31T15:26:56;7.05;;;1.30;;
75220;SDS011;63802;53.232;6.570;2023-03-31T15:29:25;2.08;;;1.00;;
75220;SDS011;63802;53.232;6.570;2023-03-31T15:32:16;5.90;;;1.27;;
75220;SDS011;63802;53.232;6.570;2023-03-31T15:34:50;4.70;;;1.10;;
75220;SDS011;63802;53.232;6.570;2023-03-31T15:37:20;5.55;;;1.13;;
75220;SDS011;63802;53.232;6.570;2023-03-31T15:39:55;4.82;;;1.30;;
75220;SDS011;63802;53.232;6.570;2023-03-31T15:42:24;4.70;;;1.38;;
75220;SDS011;63802;53.232;6.570;2023-03-31T15:44:55;3.78;;;1.10;;
75220;SDS011;63802;53.232;6.570;2023-03-31T15:47:33;3.40;;;1.27;;
75220;SDS011;63802;53.232;6.570;2023-03-31T15:50:08;4.13;;;1.40;;
75220;SDS011;63802;53.232;6.570;2023-03-31T15:52:37;6.30;;;1.60;;
75220;SDS011;63802;53.232;6.570;2023-03-31T15:57:48;5.05;;;1.40;;
75220;SDS011;63802;53.232;6.570;2023-03-31T16:02:55;3.85;;;1.30;;
75220;SDS011;63802;53.232;6.570;2023-03-31T16:05:32;6.78;;;1.50;;
75220;SDS011;63802;53.232;6.570;2023-03-31T16:08:08;4.15;;;1.55;;
75220;SDS011;63802;53.232;6.570;2023-03-31T16:11:00;4.10;;;1.30;;
75220;SDS011;63802;53.232;6.570;2023-03-31T16:13:29;6.30;;;1.35;;
75220;SDS011;63802;53.232;6.570;2023-03-31T16:15:57;4.20;;;1.40;;
75220;SDS011;63802;53.232;6.570;2023-03-31T16:20:53;5.40;;;1.75;;
75220;SDS011;63802;53.232;6.570;2023-03-31T16:23:25;3.45;;;1.55;;
75220;SDS011;63802;53.232;6.570;2023-03-31T16:25:56;4.75;;;1.48;;
75220;SDS011;63802;53.232;6.570;2023-03-31T16:28:24;5.68;;;1.83;;
75220;SDS011;63802;53.232;6.570;2023-03-31T16:30:52;7.88;;;2.22;;
75220;SDS011;63802;53.232;6.570;2023-03-31T16:33:19;5.60;;;1.60;;
75220;SDS011;63802;53.232;6.570;2023-03-31T16:35:51;7.65;;;1.85;;
75220;SDS011;63802;53.232;6.570;2023-03-31T16:38:20;7.80;;;2.00;;
75220;SDS011;63802;53.232;6.570;2023-03-31T16:40:51;4.22;;;1.83;;
75220;SDS011;63802;53.232;6.570;2023-03-31T16:43:29;7.30;;;1.60;;
75220;SDS011;63802;53.232;6.570;2023-03-31T16:45:56;3.85;;;1.60;;
75220;SDS011;63802;53.232;6.570;2023-03-31T16:48:24;5.55;;;2.00;;
75220;SDS011;63802;53.232;6.570;2023-03-31T16:50:52;6.95;;;1.75;;
75220;SDS011;63802;53.232;6.570;2023-03-31T16:53:19;7.60;;;1.80;;
75220;SDS011;63802;53.232;6.570;2023-03-31T16:55:47;8.77;;;2.00;;
75220;SDS011;63802;53.232;6.570;2023-03-31T16:58:13;11.40;;;2.33;;
75220;SDS011;63802;53.232;6.570;2023-03-31T17:00:38;8.63;;;2.75;;
75220;SDS011;63802;53.232;6.570;2023-03-31T17:03:06;10.10;;;2.38;;
75220;SDS011;63802;53.232;6.570;2023-03-31T17:05:37;8.93;;;2.42;;
75220;SDS011;63802;53.232;6.570;2023-03-31T17:08:03;9.30;;;2.33;;
75220;SDS011;63802;53.232;6.570;2023-03-31T17:10:29;8.60;;;2.55;;
75220;SDS011;63802;53.232;6.570;2023-03-31T17:12:54;9.77;;;2.65;;
75220;SDS011;63802;53.232;6.570;2023-03-31T17:15:20;7.40;;;2.28;;
75220;SDS011;63802;53.232;6.570;2023-03-31T17:17:45;7.88;;;3.13;;
75220;SDS011;63802;53.232;6.570;2023-03-31T17:20:11;5.45;;;2.20;;
75220;SDS011;63802;53.232;6.570;2023-03-31T17:22:37;7.20;;;2.10;;
75220;SDS011;63802;53.232;6.570;2023-03-31T17:25:03;6.72;;;2.13;;
75220;SDS011;63802;53.232;6.570;2023-03-31T17:27:29;10.13;;;1.95;;
75220;SDS011;63802;53.232;6.570;2023-03-31T17:29:56;9.23;;;2.35;;
75220;SDS011;63802;53.232;6.570;2023-03-31T17:32:21;8.32;;;1.52;;
75220;SDS011;63802;53.232;6.570;2023-03-31T17:34:47;8.75;;;2.17;;
75220;SDS011;63802;53.232;6.570;2023-03-31T17:37:16;5.20;;;2.00;;
75220;SDS011;63802;53.232;6.570;2023-03-31T17:39:43;6.68;;;1.80;;
75220;SDS011;63802;53.232;6.570;2023-03-31T17:42:09;7.45;;;2.17;;
75220;SDS011;63802;53.232;6.570;2023-03-31T17:44:35;8.43;;;2.60;;
75220;SDS011;63802;53.232;6.570;2023-03-31T17:47:01;6.20;;;2.00;;
75220;SDS011;63802;53.232;6.570;2023-03-31T17:49:26;7.68;;;2.15;;
75220;SDS011;63802;53.232;6.570;2023-03-31T17:51:52;6.20;;;2.35;;
75220;SDS011;63802;53.232;6.570;2023-03-31T17:54:18;6.72;;;2.17;;
75220;SDS011;63802;53.232;6.570;2023-03-31T17:56:43;8.57;;;2.58;;
75220;SDS011;63802;53.232;6.570;2023-03-31T17:59:15;10.68;;;3.63;;
75220;SDS011;63802;53.232;6.570;2023-03-31T18:01:42;7.88;;;2.97;;
75220;SDS011;63802;53.232;6.570;2023-03-31T18:04:08;10.52;;;3.03;;
75220;SDS011;63802;53.232;6.570;2023-03-31T18:06:34;10.70;;;2.60;;
75220;SDS011;63802;53.232;6.570;2023-03-31T18:08:59;11.60;;;2.92;;
75220;SDS011;63802;53.232;6.570;2023-03-31T18:11:25;8.73;;;3.60;;
75220;SDS011;63802;53.232;6.570;2023-03-31T18:13:51;12.50;;;3.92;;
75220;SDS011;63802;53.232;6.570;2023-03-31T18:16:16;9.10;;;2.80;;
75220;SDS011;63802;53.232;6.570;2023-03-31T18:18:42;8.68;;;2.55;;
75220;SDS011;63802;53.232;6.570;2023-03-31T18:21:08;6.25;;;2.50;;
75220;SDS011;63802;53.232;6.570;2023-03-31T18:23:36;11.15;;;2.70;;
75220;SDS011;63802;53.232;6.570;2023-03-31T18:26:06;9.35;;;2.58;;
75220;SDS011;63802;53.232;6.570;2023-03-31T18:28:33;5.88;;;2.63;;
75220;SDS011;63802;53.232;6.570;2023-03-31T18:31:03;7.88;;;3.00;;
75220;SDS011;63802;53.232;6.570;2023-03-31T18:35:54;7.60;;;2.67;;
75220;SDS011;63802;53.232;6.570;2023-03-31T18:38:22;6.18;;;2.90;;
75220;SDS011;63802;53.232;6.570;2023-03-31T18:40:49;6.60;;;2.55;;
75220;SDS011;63802;53.232;6.570;2023-03-31T18:43:18;9.88;;;2.88;;
75220;SDS011;63802;53.232;6.570;2023-03-31T18:45:46;7.85;;;2.22;;
75220;SDS011;63802;53.232;6.570;2023-03-31T18:48:13;4.10;;;1.65;;
75220;SDS011;63802;53.232;6.570;2023-03-31T18:50:41;2.53;;;1.20;;
75220;SDS011;63802;53.232;6.570;2023-03-31T18:53:07;3.28;;;1.73;;